createdAt,value
2022-11-28T00:01:52.585Z,3.10
2022-11-28T00:05:18.629Z,2.75
2022-11-28T00:08:18.561Z,3.63
2022-11-28T00:11:42.634Z,2.80
2022-11-28T00:14:42.753Z,3.00
2022-11-28T00:17:54.544Z,2.90
2022-11-28T00:21:08.600Z,3.20
2022-11-28T00:24:32.579Z,3.10
2022-11-28T00:27:32.634Z,3.17
2022-11-28T00:30:56.637Z,2.90
2022-11-28T00:33:56.682Z,2.90
2022-11-28T00:37:22.608Z,3.20
2022-11-28T00:40:23.695Z,3.13
2022-11-28T00:43:48.607Z,2.97
2022-11-28T00:47:00.640Z,3.13
2022-11-28T00:50:12.681Z,3.10
2022-11-28T00:53:26.707Z,3.17
2022-11-28T00:56:50.678Z,3.13
2022-11-28T00:59:50.754Z,3.13
2022-11-28T01:03:02.683Z,3.10
2022-11-28T01:06:02.723Z,2.97
2022-11-28T01:09:28.721Z,3.00
2022-11-28T01:12:28.745Z,2.90
2022-11-28T01:15:41.742Z,3.20
2022-11-28T01:18:41.794Z,3.10
2022-11-28T01:22:06.722Z,3.03
2022-11-28T01:25:19.792Z,3.67
2022-11-28T01:28:31.843Z,3.17
2022-11-28T01:31:43.831Z,2.90
2022-11-28T01:34:55.848Z,2.90
2022-11-28T01:37:58.858Z,3.20
2022-11-28T01:41:25.804Z,3.00
2022-11-28T01:44:41.119Z,3.67
2022-11-28T01:48:04.891Z,3.00
2022-11-28T01:51:16.826Z,3.30
2022-11-28T01:54:40.995Z,2.90
2022-11-28T01:57:54.832Z,3.77
2022-11-28T02:01:07.001Z,3.30
2022-11-28T02:04:30.899Z,2.90
2022-11-28T02:07:43.009Z,3.05
2022-11-28T02:11:08.954Z,3.10
2022-11-28T02:14:23.011Z,3.00
2022-11-28T02:17:47.947Z,3.50
2022-11-28T02:21:16.999Z,3.03
2022-11-28T02:24:57.016Z,3.25
2022-11-28T02:28:15.942Z,3.00
2022-11-28T02:31:44.056Z,3.47
2022-11-28T02:34:58.006Z,2.87
2022-11-28T02:38:24.011Z,2.90
2022-11-28T02:41:38.013Z,3.50
2022-11-28T02:45:02.049Z,2.73
2022-11-28T02:48:14.061Z,3.10
2022-11-28T02:51:43.020Z,2.90
2022-11-28T02:54:55.093Z,3.13
2022-11-28T02:58:19.117Z,3.43
2022-11-28T03:01:31.116Z,3.77
2022-11-28T03:05:00.093Z,3.50
2022-11-28T03:08:16.064Z,3.10
2022-11-28T03:11:44.082Z,3.20
2022-11-28T03:14:58.233Z,2.97
2022-11-28T03:18:24.093Z,3.60
2022-11-28T03:21:37.153Z,3.33
2022-11-28T03:25:03.132Z,3.00
2022-11-28T03:28:16.296Z,3.27
2022-11-28T03:31:40.208Z,3.35
2022-11-28T03:34:52.137Z,3.80
2022-11-28T03:38:16.145Z,4.03
2022-11-28T03:41:30.178Z,3.80
2022-11-28T03:44:54.179Z,3.50
2022-11-28T03:48:09.180Z,3.47
2022-11-28T03:51:37.237Z,3.95
2022-11-28T03:54:49.229Z,3.77
2022-11-28T03:58:16.279Z,4.13
2022-11-28T04:01:28.384Z,4.43
2022-11-28T04:04:52.240Z,3.63
2022-11-28T04:08:07.283Z,3.30
2022-11-28T04:11:31.337Z,4.40
2022-11-28T04:14:45.345Z,3.87
2022-11-28T04:18:11.332Z,3.83
2022-11-28T04:21:24.294Z,4.10
2022-11-28T04:24:51.353Z,4.57
2022-11-28T04:28:03.353Z,4.20
2022-11-28T04:31:28.385Z,3.40
2022-11-28T04:34:40.534Z,3.63
2022-11-28T04:38:04.368Z,3.57
2022-11-28T04:41:16.350Z,4.70
2022-11-28T04:44:40.663Z,4.27
2022-11-28T04:47:53.416Z,4.77
2022-11-28T04:51:17.430Z,5.10
2022-11-28T04:54:29.430Z,5.10
2022-11-28T04:57:57.314Z,4.87
2022-11-28T05:01:05.445Z,4.13
2022-11-28T05:04:30.478Z,3.70
2022-11-28T05:07:30.517Z,4.20
2022-11-28T05:10:42.544Z,5.27
2022-11-28T05:13:42.491Z,4.55
2022-11-28T05:16:54.543Z,5.43
2022-11-28T05:20:07.489Z,5.67
2022-11-28T05:23:31.540Z,4.87
2022-11-28T05:26:43.582Z,5.40
2022-11-28T05:29:56.570Z,4.93
2022-11-28T05:32:56.550Z,4.70
2022-11-28T05:36:22.574Z,4.67
2022-11-28T05:39:22.571Z,5.77
2022-11-28T05:42:46.591Z,5.23
2022-11-28T05:45:46.708Z,5.70
2022-11-28T05:49:10.631Z,5.50
2022-11-28T05:52:23.590Z,5.40
2022-11-28T05:55:35.650Z,5.83
2022-11-28T05:58:47.576Z,4.70
2022-11-28T06:01:59.634Z,4.80
2022-11-28T06:05:40.524Z,5.47
2022-11-28T06:08:25.687Z,5.10
2022-11-28T06:11:49.667Z,4.70
2022-11-28T06:14:49.664Z,5.50
2022-11-28T06:18:01.661Z,5.23
2022-11-28T06:21:04.717Z,5.33
2022-11-28T06:24:30.697Z,4.63
2022-11-28T06:27:30.730Z,4.63
2022-11-28T06:30:42.701Z,4.60
2022-11-28T06:33:54.720Z,4.73
2022-11-28T06:37:06.705Z,4.90
2022-11-28T06:40:19.722Z,5.00
2022-11-28T06:43:31.737Z,4.60
2022-11-28T06:46:43.738Z,4.80
2022-11-28T06:49:55.779Z,4.50
2022-11-28T06:52:55.804Z,4.23
2022-11-28T06:56:21.846Z,5.00
2022-11-28T06:59:34.841Z,5.27
2022-11-28T07:02:47.826Z,4.83
2022-11-28T07:05:47.796Z,5.03
2022-11-28T07:09:11.968Z,5.30
2022-11-28T07:12:25.851Z,4.77
2022-11-28T07:15:49.862Z,5.03
2022-11-28T07:18:49.900Z,5.40
2022-11-28T07:22:13.946Z,5.47
2022-11-28T07:25:13.939Z,5.07
2022-11-28T07:28:39.910Z,5.27
2022-11-28T07:31:43.025Z,5.83
2022-11-28T07:34:54.947Z,5.60
2022-11-28T07:37:54.957Z,6.10
2022-11-28T07:41:06.902Z,6.13
2022-11-28T07:44:23.918Z,5.50
2022-11-28T07:47:35.973Z,6.10
2022-11-28T07:50:35.983Z,5.60
2022-11-28T07:53:48.025Z,5.70
2022-11-28T07:57:18.203Z,5.80
2022-11-28T08:00:29.035Z,5.50
2022-11-28T08:03:40.988Z,5.60
2022-11-28T08:06:53.052Z,5.40
2022-11-28T08:10:06.018Z,5.50
2022-11-28T08:13:06.018Z,5.93
2022-11-28T08:16:32.091Z,5.67
2022-11-28T08:19:37.078Z,5.83
2022-11-28T08:22:49.075Z,5.93
2022-11-28T08:26:01.053Z,5.53
2022-11-28T08:29:26.155Z,5.17
2022-11-28T08:32:39.111Z,5.63
2022-11-28T08:36:04.123Z,5.40
2022-11-28T08:39:22.739Z,6.27
2022-11-28T08:42:16.173Z,6.50
2022-11-28T08:45:31.212Z,6.77
2022-11-28T08:48:56.179Z,6.00
2022-11-28T08:51:56.106Z,6.83
2022-11-28T08:55:08.147Z,5.97
2022-11-28T08:58:08.315Z,6.40
2022-11-28T09:01:39.287Z,6.57
2022-11-28T09:04:53.165Z,7.03
2022-11-28T09:08:19.241Z,6.80
2022-11-28T09:11:32.159Z,6.75
2022-11-28T09:14:45.212Z,6.37
2022-11-28T09:17:45.277Z,6.30
2022-11-28T09:21:11.285Z,6.33
2022-11-28T09:24:11.266Z,6.47
2022-11-28T09:27:27.365Z,6.27
2022-11-28T09:30:27.269Z,5.80
2022-11-28T09:33:39.265Z,6.13
2022-11-28T09:36:58.648Z,6.17
2022-11-28T09:40:13.685Z,6.00
2022-11-28T09:43:24.317Z,5.33
2022-11-28T09:46:51.315Z,6.10
2022-11-28T09:50:04.352Z,6.33
2022-11-28T09:53:30.316Z,5.53
2022-11-28T09:56:42.396Z,5.13
2022-11-28T10:00:06.409Z,5.77
2022-11-28T10:03:40.424Z,5.87
2022-11-28T10:06:52.418Z,5.13
2022-11-28T10:10:22.479Z,5.30
2022-11-28T10:13:59.846Z,5.37
2022-11-28T10:17:00.484Z,4.97
2022-11-28T10:20:12.544Z,4.63
2022-11-28T10:23:36.454Z,5.03
2022-11-28T10:26:50.453Z,5.03
2022-11-28T10:30:14.419Z,4.83
2022-11-28T10:33:26.499Z,4.40
2022-11-28T10:36:51.483Z,4.83
2022-11-28T10:40:03.535Z,5.43
2022-11-28T10:43:29.527Z,5.10
2022-11-28T10:46:50.526Z,4.83
2022-11-28T10:50:18.580Z,4.77
2022-11-28T10:53:30.506Z,4.87
2022-11-28T10:56:55.523Z,4.60
2022-11-28T11:00:09.526Z,4.47
2022-11-28T11:03:33.603Z,4.07
2022-11-28T11:06:41.825Z,4.13
2022-11-28T11:09:45.983Z,5.03
2022-11-28T11:13:00.612Z,5.13
2022-11-28T11:16:26.662Z,5.17
2022-11-28T11:19:48.585Z,5.20
2022-11-28T11:23:18.815Z,4.90
2022-11-28T11:26:30.622Z,4.80
2022-11-28T11:29:54.920Z,4.40
2022-11-28T11:33:08.722Z,4.50
2022-11-28T11:36:43.698Z,4.73
2022-11-28T11:39:43.824Z,4.40
2022-11-28T11:43:07.709Z,4.30
2022-11-28T11:46:28.791Z,4.97
2022-11-28T11:49:55.689Z,4.80
2022-11-28T11:52:55.672Z,5.33
2022-11-28T11:56:19.722Z,4.17
2022-11-28T11:59:31.742Z,4.80
2022-11-28T12:02:55.939Z,5.03
2022-11-28T12:06:24.748Z,4.37
2022-11-28T12:09:36.752Z,5.27
2022-11-28T12:13:00.836Z,4.43
2022-11-28T12:16:14.865Z,4.53
2022-11-28T12:19:40.830Z,4.70
2022-11-28T12:22:54.796Z,4.70
2022-11-28T12:26:18.876Z,4.40
2022-11-28T12:29:36.844Z,4.40
2022-11-28T12:33:01.808Z,4.77
2022-11-28T12:36:14.823Z,4.87
2022-11-28T12:39:43.966Z,4.87
2022-11-28T12:43:00.878Z,4.30
2022-11-28T12:46:24.905Z,5.00
2022-11-28T12:49:37.851Z,5.57
2022-11-28T12:53:02.960Z,4.93
2022-11-28T12:56:16.949Z,4.40
2022-11-28T12:59:43.200Z,4.70
2022-11-28T13:02:57.189Z,4.90
2022-11-28T13:06:24.096Z,5.23
2022-11-28T13:09:42.426Z,4.90
2022-11-28T13:13:07.902Z,4.73
2022-11-28T13:16:26.776Z,4.23
2022-11-28T13:19:51.983Z,4.37
2022-11-28T13:23:03.960Z,4.47
2022-11-28T13:26:27.981Z,4.47
2022-11-28T13:29:46.030Z,4.90
2022-11-28T13:33:11.008Z,4.43
2022-11-28T13:39:53.039Z,4.33
2022-11-28T13:43:07.969Z,4.43
2022-11-28T13:46:30.151Z,4.30
2022-11-28T13:49:45.068Z,4.27
2022-11-28T13:52:57.039Z,4.57
2022-11-28T13:56:12.144Z,4.20
2022-11-28T13:59:49.240Z,4.23
2022-11-28T14:02:53.198Z,4.33
2022-11-28T14:06:18.113Z,4.10
2022-11-28T14:09:45.122Z,3.60
2022-11-28T14:13:10.114Z,3.97
2022-11-28T14:16:25.225Z,3.73
2022-11-28T14:19:55.168Z,3.53
2022-11-28T14:23:25.131Z,3.70
2022-11-28T14:26:49.296Z,3.90
2022-11-28T14:30:16.177Z,3.57
2022-11-28T14:33:42.215Z,3.47
2022-11-28T14:37:08.252Z,3.60
2022-11-28T14:40:36.247Z,4.20
2022-11-28T14:43:51.265Z,4.15
2022-11-28T14:47:31.304Z,3.73
2022-11-28T14:51:11.298Z,4.10
2022-11-28T14:54:41.296Z,4.27
2022-11-28T14:58:05.322Z,3.80
2022-11-28T15:01:29.356Z,3.93
2022-11-28T15:05:02.349Z,3.47
2022-11-28T15:08:28.325Z,3.67
2022-11-28T15:11:44.331Z,3.37
2022-11-28T15:15:10.292Z,4.37
2022-11-28T15:18:23.360Z,4.00
2022-11-28T15:21:36.398Z,4.20
2022-11-28T15:24:49.403Z,4.43
2022-11-28T15:28:14.351Z,4.00
2022-11-28T15:31:45.422Z,3.37
2022-11-28T15:35:15.429Z,3.80
2022-11-28T15:38:39.472Z,3.57
2022-11-28T15:42:06.362Z,3.33
2022-11-28T15:45:19.398Z,2.95
2022-11-28T15:48:54.437Z,3.10
2022-11-28T15:51:54.431Z,3.30
2022-11-28T15:55:06.481Z,3.43
2022-11-28T15:58:24.507Z,3.27
2022-11-28T16:01:48.444Z,3.80
2022-11-28T16:05:14.472Z,3.30
2022-11-28T16:08:26.466Z,3.33
2022-11-28T16:11:50.566Z,3.97
2022-11-28T16:15:02.530Z,4.20
2022-11-28T16:18:14.511Z,3.60
2022-11-28T16:21:27.535Z,3.20
2022-11-28T16:24:51.586Z,3.27
2022-11-28T16:28:03.548Z,3.70
2022-11-28T16:31:27.666Z,3.77
2022-11-28T16:34:39.534Z,3.53
2022-11-28T16:38:05.577Z,3.70
2022-11-28T16:41:20.587Z,3.47
2022-11-28T16:44:44.675Z,2.93
2022-11-28T16:47:45.623Z,3.60
2022-11-28T16:51:11.585Z,3.27
2022-11-28T16:54:25.565Z,3.03
2022-11-28T16:57:49.801Z,3.27
2022-11-28T17:01:01.738Z,3.50
2022-11-28T17:04:13.679Z,3.23
2022-11-28T17:07:30.691Z,3.30
2022-11-28T17:10:56.650Z,3.17
2022-11-28T17:13:57.836Z,3.40
2022-11-28T17:17:20.693Z,3.17
2022-11-28T17:20:32.724Z,3.20
2022-11-28T17:23:47.816Z,4.40
2022-11-28T17:27:00.700Z,3.30
2022-11-28T17:30:12.709Z,3.40
2022-11-28T17:33:12.734Z,6.10
2022-11-28T17:36:36.748Z,4.00
2022-11-28T17:39:36.768Z,5.13
2022-11-28T17:43:03.834Z,4.23
2022-11-28T17:46:03.786Z,3.80
2022-11-28T17:49:15.817Z,9.10
2022-11-28T17:52:18.758Z,4.20
2022-11-28T17:55:34.853Z,4.20
2022-11-28T17:59:00.769Z,4.30
2022-11-28T18:02:12.913Z,3.70
2022-11-28T18:05:25.870Z,3.50
2022-11-28T18:08:37.974Z,5.85
2022-11-28T18:11:50.890Z,4.60
2022-11-28T18:15:16.918Z,4.13
2022-11-28T18:18:29.940Z,4.70
2022-11-28T18:21:41.958Z,4.10
2022-11-28T18:24:53.897Z,4.17
2022-11-28T18:28:05.943Z,4.20
2022-11-28T18:31:34.996Z,5.10
2022-11-28T18:34:34.954Z,4.33
2022-11-28T18:37:46.992Z,4.20
2022-11-28T18:40:59.008Z,4.47
2022-11-28T18:44:22.986Z,4.77
2022-11-28T18:47:40.125Z,3.87
2022-11-28T18:50:52.004Z,4.33
2022-11-28T18:54:03.976Z,4.33
2022-11-28T18:57:16.154Z,4.57
2022-11-28T19:00:28.040Z,5.17
2022-11-28T19:03:55.067Z,4.10
2022-11-28T19:07:07.041Z,5.93
2022-11-28T19:10:20.079Z,4.47
2022-11-28T19:13:32.096Z,4.40
2022-11-28T19:16:57.123Z,4.70
2022-11-28T19:20:22.076Z,4.20
2022-11-28T19:23:34.137Z,4.90
2022-11-28T19:26:58.167Z,4.60
2022-11-28T19:30:13.084Z,4.27
2022-11-28T19:33:28.138Z,4.30
2022-11-28T19:36:53.179Z,5.10
2022-11-28T19:40:05.146Z,4.77
2022-11-28T19:43:17.147Z,4.70
2022-11-28T19:46:35.014Z,4.00
2022-11-28T19:49:43.466Z,4.97
2022-11-28T19:53:09.306Z,4.80
2022-11-28T19:56:35.197Z,4.43
2022-11-28T19:59:47.199Z,4.83
2022-11-28T20:02:59.163Z,4.90
2022-11-28T20:06:11.301Z,4.47
2022-11-28T20:09:26.244Z,4.50
2022-11-28T20:12:39.217Z,6.23
2022-11-28T20:15:51.259Z,7.37
2022-11-28T20:19:03.257Z,6.60
2022-11-28T20:22:15.307Z,6.27
2022-11-28T20:25:41.318Z,5.20
2022-11-28T20:28:53.507Z,4.30
2022-11-28T20:32:18.354Z,4.50
2022-11-28T20:35:30.304Z,4.53
2022-11-28T20:38:43.306Z,3.70
2022-11-28T20:41:57.336Z,4.83
2022-11-28T20:45:09.348Z,4.17
2022-11-28T20:48:09.339Z,5.75
2022-11-28T20:51:33.383Z,6.90
2022-11-28T20:54:33.381Z,4.90
2022-11-28T20:58:00.357Z,6.37
2022-11-28T21:01:00.415Z,4.47
2022-11-28T21:04:24.439Z,4.30
2022-11-28T21:07:24.437Z,4.33
2022-11-28T21:10:36.455Z,4.40
2022-11-28T21:13:50.447Z,4.73
2022-11-28T21:17:05.466Z,4.80
2022-11-28T21:20:08.478Z,5.37
2022-11-28T21:23:34.471Z,5.03
2022-11-28T21:26:51.350Z,4.40
2022-11-28T21:30:13.465Z,4.23
2022-11-28T21:33:13.524Z,4.63
2022-11-28T21:36:29.487Z,4.40
2022-11-28T21:39:41.817Z,5.53
2022-11-28T21:42:53.509Z,4.70
2022-11-28T21:46:20.524Z,4.17
2022-11-28T21:49:36.663Z,5.10
2022-11-28T21:52:36.566Z,4.87
2022-11-28T21:56:01.605Z,4.37
2022-11-28T21:59:01.564Z,4.43
2022-11-28T22:02:30.908Z,4.80
2022-11-28T22:05:53.586Z,4.80
2022-11-28T22:09:10.048Z,4.40
2022-11-28T22:12:21.587Z,5.13
2022-11-28T22:15:45.725Z,5.00
2022-11-28T22:19:11.612Z,5.07
2022-11-28T22:22:11.613Z,5.30
2022-11-28T22:25:26.629Z,5.77
2022-11-28T22:28:38.635Z,4.60
2022-11-28T22:31:53.712Z,7.10
2022-11-28T22:35:20.667Z,8.90
2022-11-28T22:38:33.715Z,5.43
2022-11-28T22:41:45.756Z,4.87
2022-11-28T22:44:57.686Z,4.55
2022-11-28T22:48:21.764Z,7.30
2022-11-28T22:51:47.767Z,5.10
2022-11-28T22:55:11.734Z,6.33
2022-11-28T22:58:42.133Z,6.50
2022-11-28T23:01:48.956Z,4.73
2022-11-28T23:05:01.797Z,5.03
2022-11-28T23:08:27.814Z,5.97
2022-11-28T23:11:54.777Z,5.23
2022-11-28T23:15:06.807Z,7.23
2022-11-28T23:18:18.781Z,5.07
2022-11-28T23:21:42.865Z,5.27
2022-11-28T23:25:07.879Z,5.83
2022-11-28T23:28:20.878Z,9.35
2022-11-28T23:31:45.821Z,5.40
2022-11-28T23:34:57.909Z,5.23
2022-11-28T23:38:09.918Z,5.67
2022-11-28T23:41:26.989Z,5.77
2022-11-28T23:44:39.873Z,5.83
2022-11-28T23:47:51.956Z,5.40
2022-11-28T23:51:03.879Z,11.10
2022-11-28T23:54:03.922Z,5.60
2022-11-28T23:57:29.988Z,9.40
